sensor_id;sensor_type;location;lat;lon;timestamp;pressure;altitude;pressure_sealevel;temperature;humidity
17711;BME280;8975;57.718;12.134;2022-08-14T00:01:55;115940.22;;;-142.68;89.40
17711;BME280;8975;57.718;12.134;2022-08-14T00:04:21;115940.22;;;-142.68;89.51
17711;BME280;8975;57.718;12.134;2022-08-14T00:06:46;115940.22;;;-142.68;89.62
17711;BME280;8975;57.718;12.134;2022-08-14T00:09:11;115940.22;;;-142.68;89.32
17711;BME280;8975;57.718;12.134;2022-08-14T00:11:37;115940.22;;;-142.68;89.73
17711;BME280;8975;57.718;12.134;2022-08-14T00:14:02;115940.22;;;-142.68;89.74
17711;BME280;8975;57.718;12.134;2022-08-14T00:16:28;115940.22;;;-142.68;89.78
17711;BME280;8975;57.718;12.134;2022-08-14T00:18:53;115940.22;;;-142.68;89.71
17711;BME280;8975;57.718;12.134;2022-08-14T00:21:19;115940.22;;;-142.68;89.87
17711;BME280;8975;57.718;12.134;2022-08-14T00:23:44;115940.22;;;-142.68;89.92
17711;BME280;8975;57.718;12.134;2022-08-14T00:26:09;115940.22;;;-142.68;90.00
17711;BME280;8975;57.718;12.134;2022-08-14T00:28:35;115940.22;;;-142.68;90.48
17711;BME280;8975;57.718;12.134;2022-08-14T00:31:00;115940.22;;;-142.68;90.37
17711;BME280;8975;57.718;12.134;2022-08-14T00:33:27;115940.22;;;-142.68;90.44
17711;BME280;8975;57.718;12.134;2022-08-14T00:35:53;115940.22;;;-142.68;90.69
17711;BME280;8975;57.718;12.134;2022-08-14T00:38:20;115940.22;;;-142.68;91.00
17711;BME280;8975;57.718;12.134;2022-08-14T00:40:46;115940.22;;;-142.68;90.78
17711;BME280;8975;57.718;12.134;2022-08-14T00:43:12;115940.22;;;-142.68;90.99
17711;BME280;8975;57.718;12.134;2022-08-14T00:45:37;115940.22;;;-142.68;91.20
17711;BME280;8975;57.718;12.134;2022-08-14T00:48:03;115940.22;;;-142.68;91.45
17711;BME280;8975;57.718;12.134;2022-08-14T00:50:30;115940.22;;;-142.68;91.52
17711;BME280;8975;57.718;12.134;2022-08-14T00:52:56;115940.22;;;-142.68;91.63
17711;BME280;8975;57.718;12.134;2022-08-14T00:55:24;115940.22;;;-142.68;91.93
17711;BME280;8975;57.718;12.134;2022-08-14T00:57:52;115940.22;;;-142.68;92.23
17711;BME280;8975;57.718;12.134;2022-08-14T01:00:37;115940.22;;;-142.68;92.14
17711;BME280;8975;57.718;12.134;2022-08-14T01:03:05;115940.22;;;-142.68;91.90
17711;BME280;8975;57.718;12.134;2022-08-14T01:05:31;115940.22;;;-142.68;92.47
17711;BME280;8975;57.718;12.134;2022-08-14T01:07:58;115940.22;;;-142.68;92.64
17711;BME280;8975;57.718;12.134;2022-08-14T01:10:26;115940.22;;;-142.68;92.38
17711;BME280;8975;57.718;12.134;2022-08-14T01:13:13;115940.22;;;-142.68;91.77
17711;BME280;8975;57.718;12.134;2022-08-14T01:15:42;115940.22;;;-142.68;91.57
17711;BME280;8975;57.718;12.134;2022-08-14T01:18:08;115940.22;;;-142.68;92.04
17711;BME280;8975;57.718;12.134;2022-08-14T01:20:54;115940.22;;;-142.68;92.46
17711;BME280;8975;57.718;12.134;2022-08-14T01:23:29;115940.22;;;-142.68;91.88
17711;BME280;8975;57.718;12.134;2022-08-14T01:25:55;115940.22;;;-142.68;91.72
17711;BME280;8975;57.718;12.134;2022-08-14T01:28:21;115940.22;;;-142.68;92.07
17711;BME280;8975;57.718;12.134;2022-08-14T01:30:46;115940.22;;;-142.68;92.04
17711;BME280;8975;57.718;12.134;2022-08-14T01:33:14;115940.22;;;-142.68;91.57
17711;BME280;8975;57.718;12.134;2022-08-14T01:35:40;115940.22;;;-142.68;91.16
17711;BME280;8975;57.718;12.134;2022-08-14T01:38:11;115940.22;;;-142.68;91.13
17711;BME280;8975;57.718;12.134;2022-08-14T01:40:39;115940.22;;;-142.68;91.43
17711;BME280;8975;57.718;12.134;2022-08-14T01:43:12;115940.22;;;-142.68;92.07
17711;BME280;8975;57.718;12.134;2022-08-14T01:45:38;115940.22;;;-142.68;92.20
17711;BME280;8975;57.718;12.134;2022-08-14T01:48:03;115940.22;;;-142.68;91.79
17711;BME280;8975;57.718;12.134;2022-08-14T01:50:29;115940.22;;;-142.68;92.26
17711;BME280;8975;57.718;12.134;2022-08-14T01:52:54;115940.22;;;-142.68;92.12
17711;BME280;8975;57.718;12.134;2022-08-14T01:55:20;115940.22;;;-142.68;91.96
17711;BME280;8975;57.718;12.134;2022-08-14T01:57:46;115940.22;;;-142.68;91.73
17711;BME280;8975;57.718;12.134;2022-08-14T02:00:12;115940.22;;;-142.68;91.33
17711;BME280;8975;57.718;12.134;2022-08-14T02:02:41;115940.22;;;-142.68;90.75
17711;BME280;8975;57.718;12.134;2022-08-14T02:05:10;115940.22;;;-142.68;90.67
17711;BME280;8975;57.718;12.134;2022-08-14T02:07:35;115940.22;;;-142.68;90.82
17711;BME280;8975;57.718;12.134;2022-08-14T02:10:01;115940.22;;;-142.68;91.30
17711;BME280;8975;57.718;12.134;2022-08-14T02:12:26;115940.22;;;-142.68;92.06
17711;BME280;8975;57.718;12.134;2022-08-14T02:14:51;115940.22;;;-142.68;91.40
17711;BME280;8975;57.718;12.134;2022-08-14T02:17:16;115940.22;;;-142.68;91.96
17711;BME280;8975;57.718;12.134;2022-08-14T02:19:48;115940.22;;;-142.68;92.34
17711;BME280;8975;57.718;12.134;2022-08-14T02:22:14;115940.22;;;-142.68;92.33
17711;BME280;8975;57.718;12.134;2022-08-14T02:24:44;115940.22;;;-142.68;91.74
17711;BME280;8975;57.718;12.134;2022-08-14T02:27:09;115940.22;;;-142.68;92.48
17711;BME280;8975;57.718;12.134;2022-08-14T02:29:38;115940.22;;;-142.68;92.33
17711;BME280;8975;57.718;12.134;2022-08-14T02:32:05;115940.22;;;-142.68;91.62
17711;BME280;8975;57.718;12.134;2022-08-14T02:34:34;115940.22;;;-142.68;92.02
17711;BME280;8975;57.718;12.134;2022-08-14T02:37:03;115940.22;;;-142.68;91.68
17711;BME280;8975;57.718;12.134;2022-08-14T02:39:29;115940.22;;;-142.68;92.14
17711;BME280;8975;57.718;12.134;2022-08-14T02:41:56;115940.22;;;-142.68;92.32
17711;BME280;8975;57.718;12.134;2022-08-14T02:44:21;115940.22;;;-142.68;92.09
17711;BME280;8975;57.718;12.134;2022-08-14T02:46:52;115940.22;;;-142.68;92.65
17711;BME280;8975;57.718;12.134;2022-08-14T02:49:20;115940.22;;;-142.68;92.78
17711;BME280;8975;57.718;12.134;2022-08-14T02:51:52;115940.22;;;-142.68;92.74
17711;BME280;8975;57.718;12.134;2022-08-14T02:54:18;115940.22;;;-142.68;92.74
17711;BME280;8975;57.718;12.134;2022-08-14T02:56:44;115940.22;;;-142.68;92.76
17711;BME280;8975;57.718;12.134;2022-08-14T02:59:11;115940.22;;;-142.68;93.75
17711;BME280;8975;57.718;12.134;2022-08-14T03:01:38;115940.22;;;-142.68;94.22
17711;BME280;8975;57.718;12.134;2022-08-14T03:04:05;115940.22;;;-142.68;93.71
17711;BME280;8975;57.718;12.134;2022-08-14T03:06:31;115940.22;;;-142.68;93.62
17711;BME280;8975;57.718;12.134;2022-08-14T03:08:57;115940.22;;;-142.68;93.31
17711;BME280;8975;57.718;12.134;2022-08-14T03:11:23;115940.22;;;-142.68;93.82
17711;BME280;8975;57.718;12.134;2022-08-14T03:13:51;115940.22;;;-142.68;93.38
17711;BME280;8975;57.718;12.134;2022-08-14T03:16:20;115940.22;;;-142.68;92.61
17711;BME280;8975;57.718;12.134;2022-08-14T03:18:47;115940.22;;;-142.68;93.41
17711;BME280;8975;57.718;12.134;2022-08-14T03:21:16;115940.22;;;-142.68;93.85
17711;BME280;8975;57.718;12.134;2022-08-14T03:23:44;115940.22;;;-142.68;93.74
17711;BME280;8975;57.718;12.134;2022-08-14T03:26:16;115940.22;;;-142.68;93.24
17711;BME280;8975;57.718;12.134;2022-08-14T03:28:42;115940.22;;;-142.68;93.49
17711;BME280;8975;57.718;12.134;2022-08-14T03:31:09;115940.22;;;-142.68;93.42
17711;BME280;8975;57.718;12.134;2022-08-14T03:33:36;115940.22;;;-142.68;92.79
17711;BME280;8975;57.718;12.134;2022-08-14T03:36:04;115940.22;;;-142.68;92.86
17711;BME280;8975;57.718;12.134;2022-08-14T03:38:34;115940.22;;;-142.68;92.06
17711;BME280;8975;57.718;12.134;2022-08-14T03:41:09;115940.22;;;-142.68;92.47
17711;BME280;8975;57.718;12.134;2022-08-14T03:43:40;115940.22;;;-142.68;91.93
17711;BME280;8975;57.718;12.134;2022-08-14T03:46:06;115940.22;;;-142.68;91.98
17711;BME280;8975;57.718;12.134;2022-08-14T03:48:31;115940.22;;;-142.68;91.85
17711;BME280;8975;57.718;12.134;2022-08-14T03:50:57;115940.22;;;-142.68;91.98
17711;BME280;8975;57.718;12.134;2022-08-14T03:53:23;115940.22;;;-142.68;92.06
17711;BME280;8975;57.718;12.134;2022-08-14T03:55:49;115940.22;;;-142.68;91.98
17711;BME280;8975;57.718;12.134;2022-08-14T03:58:14;115940.22;;;-142.68;92.13
17711;BME280;8975;57.718;12.134;2022-08-14T04:00:40;115940.22;;;-142.68;92.78
17711;BME280;8975;57.718;12.134;2022-08-14T04:03:08;115940.22;;;-142.68;93.22
17711;BME280;8975;57.718;12.134;2022-08-14T04:05:35;115940.22;;;-142.68;93.12
17711;BME280;8975;57.718;12.134;2022-08-14T04:08:03;115940.22;;;-142.68;92.93
17711;BME280;8975;57.718;12.134;2022-08-14T04:10:28;115940.22;;;-142.68;93.10
17711;BME280;8975;57.718;12.134;2022-08-14T04:12:54;115940.22;;;-142.68;92.96
17711;BME280;8975;57.718;12.134;2022-08-14T04:15:25;115940.22;;;-142.68;93.01
17711;BME280;8975;57.718;12.134;2022-08-14T04:17:52;115940.22;;;-142.68;93.13
17711;BME280;8975;57.718;12.134;2022-08-14T04:20:18;115940.22;;;-142.68;93.47
17711;BME280;8975;57.718;12.134;2022-08-14T04:22:43;115940.22;;;-142.68;93.70
17711;BME280;8975;57.718;12.134;2022-08-14T04:25:10;115940.22;;;-142.68;93.79
17711;BME280;8975;57.718;12.134;2022-08-14T04:27:36;115940.22;;;-142.68;93.93
17711;BME280;8975;57.718;12.134;2022-08-14T04:30:03;115940.22;;;-142.68;93.52
17711;BME280;8975;57.718;12.134;2022-08-14T04:32:30;115940.22;;;-142.68;93.76
17711;BME280;8975;57.718;12.134;2022-08-14T04:34:58;115940.22;;;-142.68;93.11
17711;BME280;8975;57.718;12.134;2022-08-14T04:37:24;115940.22;;;-142.68;93.31
17711;BME280;8975;57.718;12.134;2022-08-14T04:40:09;115940.22;;;-142.68;93.39
17711;BME280;8975;57.718;12.134;2022-08-14T04:42:53;115940.22;;;-142.68;93.64
17711;BME280;8975;57.718;12.134;2022-08-14T04:45:37;115940.22;;;-142.68;93.52
17711;BME280;8975;57.718;12.134;2022-08-14T04:48:15;115940.22;;;-142.68;93.34
17711;BME280;8975;57.718;12.134;2022-08-14T04:50:50;115940.22;;;-142.68;93.16
17711;BME280;8975;57.718;12.134;2022-08-14T04:53:24;115940.22;;;-142.68;93.36
17711;BME280;8975;57.718;12.134;2022-08-14T04:55:51;115940.22;;;-142.68;93.63
17711;BME280;8975;57.718;12.134;2022-08-14T04:58:21;115940.22;;;-142.68;93.79
17711;BME280;8975;57.718;12.134;2022-08-14T05:00:49;115940.22;;;-142.68;93.66
17711;BME280;8975;57.718;12.134;2022-08-14T05:03:24;115940.22;;;-142.68;93.72
17711;BME280;8975;57.718;12.134;2022-08-14T05:05:51;115940.22;;;-142.68;93.59
17711;BME280;8975;57.718;12.134;2022-08-14T05:08:17;115940.22;;;-142.68;93.79
17711;BME280;8975;57.718;12.134;2022-08-14T05:10:54;115940.22;;;-142.68;93.77
17711;BME280;8975;57.718;12.134;2022-08-14T05:13:21;115940.22;;;-142.68;93.50
17711;BME280;8975;57.718;12.134;2022-08-14T05:15:49;115940.22;;;-142.68;93.52
17711;BME280;8975;57.718;12.134;2022-08-14T05:18:17;115940.22;;;-142.68;93.33
17711;BME280;8975;57.718;12.134;2022-08-14T05:20:46;115940.22;;;-142.68;93.56
17711;BME280;8975;57.718;12.134;2022-08-14T05:23:13;115940.22;;;-142.68;93.33
17711;BME280;8975;57.718;12.134;2022-08-14T05:25:40;115940.22;;;-142.68;93.14
17711;BME280;8975;57.718;12.134;2022-08-14T05:28:13;115940.22;;;-142.68;93.29
17711;BME280;8975;57.718;12.134;2022-08-14T05:30:43;115940.22;;;-142.68;93.53
17711;BME280;8975;57.718;12.134;2022-08-14T05:33:10;115940.22;;;-142.68;93.42
17711;BME280;8975;57.718;12.134;2022-08-14T05:35:36;115940.22;;;-142.68;94.19
17711;BME280;8975;57.718;12.134;2022-08-14T05:38:07;115940.22;;;-142.68;93.93
17711;BME280;8975;57.718;12.134;2022-08-14T05:40:33;115940.22;;;-142.68;93.58
17711;BME280;8975;57.718;12.134;2022-08-14T05:42:59;115940.22;;;-142.68;93.99
17711;BME280;8975;57.718;12.134;2022-08-14T05:45:25;115940.22;;;-142.68;93.84
17711;BME280;8975;57.718;12.134;2022-08-14T05:47:50;115940.22;;;-142.68;93.46
17711;BME280;8975;57.718;12.134;2022-08-14T05:50:15;115940.22;;;-142.68;93.00
17711;BME280;8975;57.718;12.134;2022-08-14T05:52:41;115940.22;;;-142.68;92.42
17711;BME280;8975;57.718;12.134;2022-08-14T05:55:08;115940.22;;;-142.68;91.92
17711;BME280;8975;57.718;12.134;2022-08-14T06:00:14;115940.22;;;-142.68;91.40
17711;BME280;8975;57.718;12.134;2022-08-14T06:02:40;115940.22;;;-142.68;91.08
17711;BME280;8975;57.718;12.134;2022-08-14T06:05:05;115940.22;;;-142.68;90.93
17711;BME280;8975;57.718;12.134;2022-08-14T06:07:36;115940.22;;;-142.68;91.13
17711;BME280;8975;57.718;12.134;2022-08-14T06:10:06;115940.22;;;-142.68;91.37
17711;BME280;8975;57.718;12.134;2022-08-14T06:12:32;115940.22;;;-142.68;91.16
17711;BME280;8975;57.718;12.134;2022-08-14T06:14:58;115940.22;;;-142.68;91.18
17711;BME280;8975;57.718;12.134;2022-08-14T06:17:24;115940.22;;;-142.68;90.81
17711;BME280;8975;57.718;12.134;2022-08-14T06:19:50;115940.22;;;-142.68;90.84
17711;BME280;8975;57.718;12.134;2022-08-14T06:22:15;115940.22;;;-142.68;90.75
17711;BME280;8975;57.718;12.134;2022-08-14T06:24:41;115940.22;;;-142.68;91.19
17711;BME280;8975;57.718;12.134;2022-08-14T06:27:06;115940.22;;;-142.68;91.21
17711;BME280;8975;57.718;12.134;2022-08-14T06:29:32;115940.22;;;-142.68;91.13
17711;BME280;8975;57.718;12.134;2022-08-14T06:31:58;115940.22;;;-142.68;91.64
17711;BME280;8975;57.718;12.134;2022-08-14T06:34:24;115940.22;;;-142.68;91.78
17711;BME280;8975;57.718;12.134;2022-08-14T06:36:49;115940.22;;;-142.68;92.08
17711;BME280;8975;57.718;12.134;2022-08-14T06:39:14;115940.22;;;-142.68;91.82
17711;BME280;8975;57.718;12.134;2022-08-14T06:41:40;115940.22;;;-142.68;92.31
17711;BME280;8975;57.718;12.134;2022-08-14T06:44:09;115940.22;;;-142.68;90.66
17711;BME280;8975;57.718;12.134;2022-08-14T06:46:35;115940.22;;;-142.68;86.59
17711;BME280;8975;57.718;12.134;2022-08-14T06:49:00;115940.22;;;-142.68;82.02
17711;BME280;8975;57.718;12.134;2022-08-14T06:51:26;115940.22;;;-142.68;78.88
17711;BME280;8975;57.718;12.134;2022-08-14T06:53:51;115940.22;;;-142.68;76.06
17711;BME280;8975;57.718;12.134;2022-08-14T06:56:17;115940.22;;;-142.68;73.26
17711;BME280;8975;57.718;12.134;2022-08-14T06:58:42;115940.22;;;-142.68;71.25
17711;BME280;8975;57.718;12.134;2022-08-14T07:01:08;115940.22;;;-142.68;71.02
17711;BME280;8975;57.718;12.134;2022-08-14T07:03:52;115940.22;;;-142.68;70.05
17711;BME280;8975;57.718;12.134;2022-08-14T07:06:36;115940.22;;;-142.68;69.55
17711;BME280;8975;57.718;12.134;2022-08-14T07:09:01;115940.22;;;-142.68;69.41
17711;BME280;8975;57.718;12.134;2022-08-14T07:11:29;115940.22;;;-142.68;68.86
17711;BME280;8975;57.718;12.134;2022-08-14T07:13:54;115940.22;;;-142.68;66.88
17711;BME280;8975;57.718;12.134;2022-08-14T07:16:19;115940.22;;;-142.68;66.11
17711;BME280;8975;57.718;12.134;2022-08-14T07:18:45;115940.22;;;-142.68;66.12
17711;BME280;8975;57.718;12.134;2022-08-14T07:21:10;115940.22;;;-142.68;68.27
17711;BME280;8975;57.718;12.134;2022-08-14T07:23:36;115940.22;;;-142.68;70.64
17711;BME280;8975;57.718;12.134;2022-08-14T07:26:04;115940.22;;;-142.68;72.92
17711;BME280;8975;57.718;12.134;2022-08-14T07:28:33;115940.22;;;-142.68;74.51
17711;BME280;8975;57.718;12.134;2022-08-14T07:31:01;115940.22;;;-142.68;74.95
17711;BME280;8975;57.718;12.134;2022-08-14T07:33:29;115940.22;;;-142.68;75.88
17711;BME280;8975;57.718;12.134;2022-08-14T07:35:58;115940.22;;;-142.68;76.89
17711;BME280;8975;57.718;12.134;2022-08-14T07:38:23;115940.22;;;-142.68;77.32
17711;BME280;8975;57.718;12.134;2022-08-14T07:40:50;115940.22;;;-142.68;77.99
17711;BME280;8975;57.718;12.134;2022-08-14T07:43:16;115940.22;;;-142.68;78.38
17711;BME280;8975;57.718;12.134;2022-08-14T07:45:42;115940.22;;;-142.68;78.24
17711;BME280;8975;57.718;12.134;2022-08-14T07:48:08;115940.22;;;-142.68;77.83
17711;BME280;8975;57.718;12.134;2022-08-14T07:50:34;115940.22;;;-142.68;78.92
17711;BME280;8975;57.718;12.134;2022-08-14T07:53:00;115940.22;;;-142.68;77.96
17711;BME280;8975;57.718;12.134;2022-08-14T07:55:26;115940.22;;;-142.68;77.71
17711;BME280;8975;57.718;12.134;2022-08-14T07:57:52;115940.22;;;-142.68;77.82
17711;BME280;8975;57.718;12.134;2022-08-14T08:00:20;115940.22;;;-142.68;78.23
17711;BME280;8975;57.718;12.134;2022-08-14T08:02:47;115940.22;;;-142.68;77.87
17711;BME280;8975;57.718;12.134;2022-08-14T08:05:14;115940.22;;;-142.68;77.54
17711;BME280;8975;57.718;12.134;2022-08-14T08:07:41;115940.22;;;-142.68;77.86
17711;BME280;8975;57.718;12.134;2022-08-14T08:10:19;115940.22;;;-142.68;76.65
17711;BME280;8975;57.718;12.134;2022-08-14T08:13:07;115940.22;;;-142.68;76.99
17711;BME280;8975;57.718;12.134;2022-08-14T08:15:34;115940.22;;;-142.68;76.54
17711;BME280;8975;57.718;12.134;2022-08-14T08:18:06;115940.22;;;-142.68;76.00
17711;BME280;8975;57.718;12.134;2022-08-14T08:20:35;115940.22;;;-142.68;77.76
17711;BME280;8975;57.718;12.134;2022-08-14T08:23:02;115940.22;;;-142.68;77.25
17711;BME280;8975;57.718;12.134;2022-08-14T08:25:30;115940.22;;;-142.68;75.38
17711;BME280;8975;57.718;12.134;2022-08-14T08:28:03;115940.22;;;-142.68;75.42
17711;BME280;8975;57.718;12.134;2022-08-14T08:30:31;115940.22;;;-142.68;75.20
17711;BME280;8975;57.718;12.134;2022-08-14T08:33:00;115940.22;;;-142.68;75.19
17711;BME280;8975;57.718;12.134;2022-08-14T08:35:28;115940.22;;;-142.68;74.58
17711;BME280;8975;57.718;12.134;2022-08-14T08:38:04;115940.22;;;-142.68;72.92
17711;BME280;8975;57.718;12.134;2022-08-14T08:40:41;115940.22;;;-142.68;74.19
17711;BME280;8975;57.718;12.134;2022-08-14T08:43:16;115940.22;;;-142.68;72.51
17711;BME280;8975;57.718;12.134;2022-08-14T08:45:42;115940.22;;;-142.68;74.66
17711;BME280;8975;57.718;12.134;2022-08-14T08:48:08;115940.22;;;-142.68;73.99
17711;BME280;8975;57.718;12.134;2022-08-14T08:50:37;115940.22;;;-142.68;74.20
17711;BME280;8975;57.718;12.134;2022-08-14T08:53:09;115940.22;;;-142.68;73.32
17711;BME280;8975;57.718;12.134;2022-08-14T08:55:37;115940.22;;;-142.68;74.76
17711;BME280;8975;57.718;12.134;2022-08-14T08:58:11;115940.22;;;-142.68;74.61
17711;BME280;8975;57.718;12.134;2022-08-14T09:00:39;115940.22;;;-142.68;73.18
17711;BME280;8975;57.718;12.134;2022-08-14T09:03:08;115940.22;;;-142.68;73.62
17711;BME280;8975;57.718;12.134;2022-08-14T09:05:36;115940.22;;;-142.68;73.80
17711;BME280;8975;57.718;12.134;2022-08-14T09:08:18;115940.22;;;-142.68;73.85
17711;BME280;8975;57.718;12.134;2022-08-14T09:10:45;115940.22;;;-142.68;73.70
17711;BME280;8975;57.718;12.134;2022-08-14T09:13:12;115940.22;;;-142.68;72.59
17711;BME280;8975;57.718;12.134;2022-08-14T09:15:40;115940.22;;;-142.68;72.95
17711;BME280;8975;57.718;12.134;2022-08-14T09:18:07;115940.22;;;-142.68;72.93
17711;BME280;8975;57.718;12.134;2022-08-14T09:20:33;115940.22;;;-142.68;70.80
17711;BME280;8975;57.718;12.134;2022-08-14T09:22:59;115940.22;;;-142.68;71.20
17711;BME280;8975;57.718;12.134;2022-08-14T09:25:24;115940.22;;;-142.68;71.82
17711;BME280;8975;57.718;12.134;2022-08-14T09:27:50;115940.22;;;-142.68;72.48
17711;BME280;8975;57.718;12.134;2022-08-14T09:30:15;115940.22;;;-142.68;71.15
17711;BME280;8975;57.718;12.134;2022-08-14T09:32:55;115940.22;;;-142.68;71.28
17711;BME280;8975;57.718;12.134;2022-08-14T09:35:52;115940.22;;;-142.68;71.22
17711;BME280;8975;57.718;12.134;2022-08-14T09:38:45;115940.22;;;-142.68;71.99
17711;BME280;8975;57.718;12.134;2022-08-14T09:41:22;115940.22;;;-142.68;72.20
17711;BME280;8975;57.718;12.134;2022-08-14T09:44:06;115940.22;;;-142.68;71.52
17711;BME280;8975;57.718;12.134;2022-08-14T09:46:34;115940.22;;;-142.68;71.99
17711;BME280;8975;57.718;12.134;2022-08-14T09:49:01;115940.22;;;-142.68;70.88
17711;BME280;8975;57.718;12.134;2022-08-14T09:51:28;115940.22;;;-142.68;68.44
17711;BME280;8975;57.718;12.134;2022-08-14T09:54:03;115940.22;;;-142.68;66.15
17711;BME280;8975;57.718;12.134;2022-08-14T09:56:47;115940.22;;;-142.68;67.12
17711;BME280;8975;57.718;12.134;2022-08-14T09:59:15;115940.22;;;-142.68;68.38
17711;BME280;8975;57.718;12.134;2022-08-14T10:01:42;115940.22;;;-142.68;69.92
17711;BME280;8975;57.718;12.134;2022-08-14T10:04:23;115940.22;;;-142.68;68.86
17711;BME280;8975;57.718;12.134;2022-08-14T10:06:50;115940.22;;;-142.68;67.17
17711;BME280;8975;57.718;12.134;2022-08-14T10:09:16;115940.22;;;-142.68;66.24
17711;BME280;8975;57.718;12.134;2022-08-14T10:11:55;115940.22;;;-142.68;65.74
17711;BME280;8975;57.718;12.134;2022-08-14T10:14:23;115940.22;;;-142.68;67.53
17711;BME280;8975;57.718;12.134;2022-08-14T10:16:51;115940.22;;;-142.68;64.11
17711;BME280;8975;57.718;12.134;2022-08-14T10:19:19;115940.22;;;-142.68;61.48
17711;BME280;8975;57.718;12.134;2022-08-14T10:24:35;115940.22;;;-142.68;58.71
17711;BME280;8975;57.718;12.134;2022-08-14T10:27:21;115940.22;;;-142.68;63.31
17711;BME280;8975;57.718;12.134;2022-08-14T10:29:54;115940.22;;;-142.68;60.71
17711;BME280;8975;57.718;12.134;2022-08-14T10:32:21;115940.22;;;-142.68;60.70
17711;BME280;8975;57.718;12.134;2022-08-14T10:34:48;115940.22;;;-142.68;61.32
17711;BME280;8975;57.718;12.134;2022-08-14T10:37:15;115940.22;;;-142.68;60.96
17711;BME280;8975;57.718;12.134;2022-08-14T10:39:43;115940.22;;;-142.68;60.77
17711;BME280;8975;57.718;12.134;2022-08-14T10:42:12;115940.22;;;-142.68;62.85
17711;BME280;8975;57.718;12.134;2022-08-14T10:44:40;115940.22;;;-142.68;65.37
17711;BME280;8975;57.718;12.134;2022-08-14T10:47:10;115940.22;;;-142.68;62.68
17711;BME280;8975;57.718;12.134;2022-08-14T10:49:38;115940.22;;;-142.68;63.97
17711;BME280;8975;57.718;12.134;2022-08-14T10:52:11;115940.22;;;-142.68;62.52
17711;BME280;8975;57.718;12.134;2022-08-14T10:54:44;115940.22;;;-142.68;64.58
17711;BME280;8975;57.718;12.134;2022-08-14T10:59:43;115940.22;;;-142.68;61.85
17711;BME280;8975;57.718;12.134;2022-08-14T11:07:38;115940.22;;;-142.68;62.62
17711;BME280;8975;57.718;12.134;2022-08-14T11:10:13;115940.22;;;-142.68;63.33
17711;BME280;8975;57.718;12.134;2022-08-14T11:12:40;115940.22;;;-142.68;62.83
17711;BME280;8975;57.718;12.134;2022-08-14T11:15:09;115940.22;;;-142.68;62.27
17711;BME280;8975;57.718;12.134;2022-08-14T11:17:35;115940.22;;;-142.68;63.04
17711;BME280;8975;57.718;12.134;2022-08-14T11:20:05;115940.22;;;-142.68;63.28
17711;BME280;8975;57.718;12.134;2022-08-14T11:22:31;115940.22;;;-142.68;59.52
17711;BME280;8975;57.718;12.134;2022-08-14T11:25:05;115940.22;;;-142.68;60.47
17711;BME280;8975;57.718;12.134;2022-08-14T11:27:31;115940.22;;;-142.68;60.71
17711;BME280;8975;57.718;12.134;2022-08-14T11:30:04;115940.22;;;-142.68;61.25
17711;BME280;8975;57.718;12.134;2022-08-14T11:32:30;115940.22;;;-142.68;60.14
17711;BME280;8975;57.718;12.134;2022-08-14T11:34:59;115940.22;;;-142.68;55.05
17711;BME280;8975;57.718;12.134;2022-08-14T11:37:28;115940.22;;;-142.68;58.79
17711;BME280;8975;57.718;12.134;2022-08-14T11:39:55;115940.22;;;-142.68;60.98
17711;BME280;8975;57.718;12.134;2022-08-14T11:42:25;115940.22;;;-142.68;56.62
17711;BME280;8975;57.718;12.134;2022-08-14T11:44:52;115940.22;;;-142.68;56.90
17711;BME280;8975;57.718;12.134;2022-08-14T11:47:20;115940.22;;;-142.68;56.43
17711;BME280;8975;57.718;12.134;2022-08-14T11:49:46;115940.22;;;-142.68;55.07
17711;BME280;8975;57.718;12.134;2022-08-14T11:52:15;115940.22;;;-142.68;56.69
17711;BME280;8975;57.718;12.134;2022-08-14T11:54:43;115940.22;;;-142.68;55.87
17711;BME280;8975;57.718;12.134;2022-08-14T11:57:16;115940.22;;;-142.68;53.91
17711;BME280;8975;57.718;12.134;2022-08-14T11:59:42;115940.22;;;-142.68;55.59
17711;BME280;8975;57.718;12.134;2022-08-14T12:02:09;115940.22;;;-142.68;50.06
17711;BME280;8975;57.718;12.134;2022-08-14T12:04:35;115940.22;;;-142.68;50.70
17711;BME280;8975;57.718;12.134;2022-08-14T12:07:05;115940.22;;;-142.68;51.36
17711;BME280;8975;57.718;12.134;2022-08-14T12:09:33;115940.22;;;-142.68;50.04
17711;BME280;8975;57.718;12.134;2022-08-14T12:14:59;115940.22;;;-142.68;54.14
17711;BME280;8975;57.718;12.134;2022-08-14T12:17:45;115940.22;;;-142.68;52.25
17711;BME280;8975;57.718;12.134;2022-08-14T12:20:13;115940.22;;;-142.68;51.23
17711;BME280;8975;57.718;12.134;2022-08-14T12:22:43;115940.22;;;-142.68;54.28
17711;BME280;8975;57.718;12.134;2022-08-14T12:25:20;115940.22;;;-142.68;51.47
17711;BME280;8975;57.718;12.134;2022-08-14T12:27:48;115940.22;;;-142.68;51.68
17711;BME280;8975;57.718;12.134;2022-08-14T12:30:25;115940.22;;;-142.68;51.77
17711;BME280;8975;57.718;12.134;2022-08-14T12:32:51;115940.22;;;-142.68;51.73
17711;BME280;8975;57.718;12.134;2022-08-14T12:35:17;115940.22;;;-142.68;51.30
17711;BME280;8975;57.718;12.134;2022-08-14T12:37:49;115940.22;;;-142.68;54.54
17711;BME280;8975;57.718;12.134;2022-08-14T12:40:16;115940.22;;;-142.68;50.24
17711;BME280;8975;57.718;12.134;2022-08-14T12:42:43;115940.22;;;-142.68;52.13
17711;BME280;8975;57.718;12.134;2022-08-14T12:45:10;115940.22;;;-142.68;54.20
17711;BME280;8975;57.718;12.134;2022-08-14T12:47:41;115940.22;;;-142.68;52.48
17711;BME280;8975;57.718;12.134;2022-08-14T12:50:07;115940.22;;;-142.68;54.33
17711;BME280;8975;57.718;12.134;2022-08-14T12:52:35;115940.22;;;-142.68;51.78
17711;BME280;8975;57.718;12.134;2022-08-14T12:55:10;115940.22;;;-142.68;52.28